sensor_id;sensor_type;location;lat;lon;timestamp;temperature;humidity
16229;DHT22;8222;51.462;12.630;2023-08-20T00:01:12;25.90;99.90
16229;DHT22;8222;51.462;12.630;2023-08-20T00:03:41;26.00;99.90
16229;DHT22;8222;51.462;12.630;2023-08-20T00:06:08;25.80;99.90
16229;DHT22;8222;51.462;12.630;2023-08-20T00:08:36;25.80;99.90
16229;DHT22;8222;51.462;12.630;2023-08-20T00:11:02;25.90;99.90
16229;DHT22;8222;51.462;12.630;2023-08-20T00:13:33;25.80;99.90
16229;DHT22;8222;51.462;12.630;2023-08-20T00:16:01;25.70;99.90
16229;DHT22;8222;51.462;12.630;2023-08-20T00:18:30;25.70;99.90
16229;DHT22;8222;51.462;12.630;2023-08-20T00:20:56;25.70;99.90
16229;DHT22;8222;51.462;12.630;2023-08-20T00:23:22;25.60;99.90
16229;DHT22;8222;51.462;12.630;2023-08-20T00:25:48;25.60;99.90
16229;DHT22;8222;51.462;12.630;2023-08-20T00:28:14;25.50;99.90
16229;DHT22;8222;51.462;12.630;2023-08-20T00:30:44;25.50;99.90
16229;DHT22;8222;51.462;12.630;2023-08-20T00:33:10;25.50;99.90
16229;DHT22;8222;51.462;12.630;2023-08-20T00:35:36;25.60;99.90
16229;DHT22;8222;51.462;12.630;2023-08-20T00:38:01;25.60;99.90
16229;DHT22;8222;51.462;12.630;2023-08-20T00:40:30;25.50;99.90
16229;DHT22;8222;51.462;12.630;2023-08-20T00:42:58;25.40;99.90
16229;DHT22;8222;51.462;12.630;2023-08-20T00:45:24;25.30;99.90
16229;DHT22;8222;51.462;12.630;2023-08-20T00:47:50;25.20;99.90
16229;DHT22;8222;51.462;12.630;2023-08-20T00:50:17;25.10;99.90
16229;DHT22;8222;51.462;12.630;2023-08-20T00:52:45;25.20;99.90
16229;DHT22;8222;51.462;12.630;2023-08-20T00:55:11;25.10;99.90
16229;DHT22;8222;51.462;12.630;2023-08-20T00:57:40;25.00;99.90
16229;DHT22;8222;51.462;12.630;2023-08-20T01:00:06;24.90;99.90
16229;DHT22;8222;51.462;12.630;2023-08-20T01:02:53;24.90;99.90
16229;DHT22;8222;51.462;12.630;2023-08-20T01:05:19;24.90;99.90
16229;DHT22;8222;51.462;12.630;2023-08-20T01:10:29;24.80;99.90
16229;DHT22;8222;51.462;12.630;2023-08-20T01:12:58;25.00;99.90
16229;DHT22;8222;51.462;12.630;2023-08-20T01:15:24;25.10;99.90
16229;DHT22;8222;51.462;12.630;2023-08-20T01:17:52;25.00;99.90
16229;DHT22;8222;51.462;12.630;2023-08-20T01:20:18;24.90;99.90
16229;DHT22;8222;51.462;12.630;2023-08-20T01:23:16;24.80;99.90
16229;DHT22;8222;51.462;12.630;2023-08-20T01:28:34;24.70;99.90
16229;DHT22;8222;51.462;12.630;2023-08-20T01:31:01;24.80;99.90
16229;DHT22;8222;51.462;12.630;2023-08-20T01:33:29;24.80;99.90
16229;DHT22;8222;51.462;12.630;2023-08-20T01:36:00;24.70;99.90
16229;DHT22;8222;51.462;12.630;2023-08-20T01:38:28;24.80;99.90
16229;DHT22;8222;51.462;12.630;2023-08-20T01:40:54;24.70;99.90
16229;DHT22;8222;51.462;12.630;2023-08-20T01:43:23;24.70;99.90
16229;DHT22;8222;51.462;12.630;2023-08-20T01:45:49;24.60;99.90
16229;DHT22;8222;51.462;12.630;2023-08-20T01:48:17;24.50;99.90
16229;DHT22;8222;51.462;12.630;2023-08-20T01:50:46;24.50;99.90
16229;DHT22;8222;51.462;12.630;2023-08-20T01:53:14;24.50;99.90
16229;DHT22;8222;51.462;12.630;2023-08-20T01:55:40;24.60;99.90
16229;DHT22;8222;51.462;12.630;2023-08-20T01:58:05;24.50;99.90
16229;DHT22;8222;51.462;12.630;2023-08-20T02:00:31;24.40;99.90
16229;DHT22;8222;51.462;12.630;2023-08-20T02:02:59;24.40;99.90
16229;DHT22;8222;51.462;12.630;2023-08-20T02:05:30;24.40;99.90
16229;DHT22;8222;51.462;12.630;2023-08-20T02:07:55;24.30;99.90
16229;DHT22;8222;51.462;12.630;2023-08-20T02:10:23;24.20;99.90
16229;DHT22;8222;51.462;12.630;2023-08-20T02:12:49;24.20;99.90
16229;DHT22;8222;51.462;12.630;2023-08-20T02:15:19;24.20;99.90
16229;DHT22;8222;51.462;12.630;2023-08-20T02:17:50;24.20;99.90
16229;DHT22;8222;51.462;12.630;2023-08-20T02:20:16;24.30;99.90
16229;DHT22;8222;51.462;12.630;2023-08-20T02:22:44;24.20;99.90
16229;DHT22;8222;51.462;12.630;2023-08-20T02:25:10;24.10;99.90
16229;DHT22;8222;51.462;12.630;2023-08-20T02:27:40;24.00;99.90
16229;DHT22;8222;51.462;12.630;2023-08-20T02:30:09;24.00;99.90
16229;DHT22;8222;51.462;12.630;2023-08-20T02:32:35;24.00;99.90
16229;DHT22;8222;51.462;12.630;2023-08-20T02:35:01;23.90;99.90
16229;DHT22;8222;51.462;12.630;2023-08-20T02:37:31;23.90;99.90
16229;DHT22;8222;51.462;12.630;2023-08-20T02:39:57;23.90;99.90
16229;DHT22;8222;51.462;12.630;2023-08-20T02:42:22;23.90;99.90
16229;DHT22;8222;51.462;12.630;2023-08-20T02:44:50;23.80;99.90
16229;DHT22;8222;51.462;12.630;2023-08-20T02:47:16;23.80;99.90
16229;DHT22;8222;51.462;12.630;2023-08-20T02:49:44;23.70;99.90
16229;DHT22;8222;51.462;12.630;2023-08-20T02:52:09;23.70;99.90
16229;DHT22;8222;51.462;12.630;2023-08-20T02:54:35;23.80;99.90
16229;DHT22;8222;51.462;12.630;2023-08-20T02:57:03;23.70;99.90
16229;DHT22;8222;51.462;12.630;2023-08-20T02:59:28;23.70;99.90
16229;DHT22;8222;51.462;12.630;2023-08-20T03:01:54;23.70;99.90
16229;DHT22;8222;51.462;12.630;2023-08-20T03:04:20;23.70;99.90
16229;DHT22;8222;51.462;12.630;2023-08-20T03:06:45;23.70;99.90
16229;DHT22;8222;51.462;12.630;2023-08-20T03:09:11;23.80;99.90
16229;DHT22;8222;51.462;12.630;2023-08-20T03:11:37;23.80;99.90
16229;DHT22;8222;51.462;12.630;2023-08-20T03:14:03;23.80;99.90
16229;DHT22;8222;51.462;12.630;2023-08-20T03:16:28;23.70;99.90
16229;DHT22;8222;51.462;12.630;2023-08-20T03:18:54;23.70;99.90
16229;DHT22;8222;51.462;12.630;2023-08-20T03:21:22;23.80;99.90
16229;DHT22;8222;51.462;12.630;2023-08-20T03:23:50;23.80;99.90
16229;DHT22;8222;51.462;12.630;2023-08-20T03:26:15;23.80;99.90
16229;DHT22;8222;51.462;12.630;2023-08-20T03:28:44;23.80;99.90
16229;DHT22;8222;51.462;12.630;2023-08-20T03:31:09;23.70;99.90
16229;DHT22;8222;51.462;12.630;2023-08-20T03:33:35;23.80;99.90
16229;DHT22;8222;51.462;12.630;2023-08-20T03:36:03;23.80;99.90
16229;DHT22;8222;51.462;12.630;2023-08-20T03:38:29;23.80;99.90
16229;DHT22;8222;51.462;12.630;2023-08-20T03:40:55;23.80;99.90
16229;DHT22;8222;51.462;12.630;2023-08-20T03:43:21;23.70;99.90
16229;DHT22;8222;51.462;12.630;2023-08-20T03:45:50;23.60;99.90
16229;DHT22;8222;51.462;12.630;2023-08-20T03:48:16;23.70;99.90
16229;DHT22;8222;51.462;12.630;2023-08-20T03:50:42;23.60;99.90
16229;DHT22;8222;51.462;12.630;2023-08-20T03:53:08;23.60;99.90
16229;DHT22;8222;51.462;12.630;2023-08-20T03:55:33;23.60;99.90
16229;DHT22;8222;51.462;12.630;2023-08-20T03:57:59;23.50;99.90
16229;DHT22;8222;51.462;12.630;2023-08-20T04:00:25;23.50;99.90
16229;DHT22;8222;51.462;12.630;2023-08-20T04:02:53;23.40;99.90
16229;DHT22;8222;51.462;12.630;2023-08-20T04:05:19;23.30;99.90
16229;DHT22;8222;51.462;12.630;2023-08-20T04:07:46;23.30;99.90
16229;DHT22;8222;51.462;12.630;2023-08-20T04:10:12;23.30;99.90
16229;DHT22;8222;51.462;12.630;2023-08-20T04:12:42;23.40;99.90
16229;DHT22;8222;51.462;12.630;2023-08-20T04:15:08;23.40;99.90
16229;DHT22;8222;51.462;12.630;2023-08-20T04:17:34;23.40;99.90
16229;DHT22;8222;51.462;12.630;2023-08-20T04:20:00;23.40;99.90
16229;DHT22;8222;51.462;12.630;2023-08-20T04:22:26;23.40;99.90
16229;DHT22;8222;51.462;12.630;2023-08-20T04:24:54;23.40;99.90
16229;DHT22;8222;51.462;12.630;2023-08-20T04:27:19;23.40;99.90
16229;DHT22;8222;51.462;12.630;2023-08-20T04:29:48;23.40;99.90
16229;DHT22;8222;51.462;12.630;2023-08-20T04:32:16;23.50;99.90
16229;DHT22;8222;51.462;12.630;2023-08-20T04:34:44;23.40;99.90
16229;DHT22;8222;51.462;12.630;2023-08-20T04:37:11;23.40;99.90
16229;DHT22;8222;51.462;12.630;2023-08-20T04:39:38;23.30;99.90
16229;DHT22;8222;51.462;12.630;2023-08-20T04:42:04;23.40;99.90
16229;DHT22;8222;51.462;12.630;2023-08-20T04:44:32;23.40;99.90
16229;DHT22;8222;51.462;12.630;2023-08-20T04:47:00;23.40;99.90
16229;DHT22;8222;51.462;12.630;2023-08-20T04:49:25;23.40;99.90
16229;DHT22;8222;51.462;12.630;2023-08-20T04:51:54;23.30;99.90
16229;DHT22;8222;51.462;12.630;2023-08-20T04:54:22;23.30;99.90
16229;DHT22;8222;51.462;12.630;2023-08-20T04:56:50;23.20;99.90
16229;DHT22;8222;51.462;12.630;2023-08-20T04:59:16;23.20;99.90
16229;DHT22;8222;51.462;12.630;2023-08-20T05:01:44;23.30;99.90
16229;DHT22;8222;51.462;12.630;2023-08-20T05:04:12;23.30;99.90
16229;DHT22;8222;51.462;12.630;2023-08-20T05:06:37;23.40;99.90
16229;DHT22;8222;51.462;12.630;2023-08-20T05:09:03;23.30;99.90
16229;DHT22;8222;51.462;12.630;2023-08-20T05:11:31;23.20;99.90
16229;DHT22;8222;51.462;12.630;2023-08-20T05:14:02;23.20;99.90
16229;DHT22;8222;51.462;12.630;2023-08-20T05:16:30;23.30;99.90
16229;DHT22;8222;51.462;12.630;2023-08-20T05:18:56;23.40;99.90
16229;DHT22;8222;51.462;12.630;2023-08-20T05:21:26;23.50;99.90
16229;DHT22;8222;51.462;12.630;2023-08-20T05:23:54;23.60;99.90
16229;DHT22;8222;51.462;12.630;2023-08-20T05:26:24;23.50;99.90
16229;DHT22;8222;51.462;12.630;2023-08-20T05:28:55;23.50;99.90
16229;DHT22;8222;51.462;12.630;2023-08-20T05:31:21;23.80;99.90
16229;DHT22;8222;51.462;12.630;2023-08-20T05:33:47;23.80;99.90
16229;DHT22;8222;51.462;12.630;2023-08-20T05:36:13;23.90;99.90
16229;DHT22;8222;51.462;12.630;2023-08-20T05:38:39;23.90;99.90
16229;DHT22;8222;51.462;12.630;2023-08-20T05:41:05;23.90;99.90
16229;DHT22;8222;51.462;12.630;2023-08-20T05:43:35;23.90;99.90
16229;DHT22;8222;51.462;12.630;2023-08-20T05:46:04;24.00;99.90
16229;DHT22;8222;51.462;12.630;2023-08-20T05:48:30;23.90;99.90
16229;DHT22;8222;51.462;12.630;2023-08-20T05:50:56;24.00;99.90
16229;DHT22;8222;51.462;12.630;2023-08-20T05:53:26;24.00;99.90
16229;DHT22;8222;51.462;12.630;2023-08-20T05:55:55;24.00;99.90
16229;DHT22;8222;51.462;12.630;2023-08-20T05:58:20;23.90;99.90
16229;DHT22;8222;51.462;12.630;2023-08-20T06:00:46;23.90;99.90
16229;DHT22;8222;51.462;12.630;2023-08-20T06:03:14;23.90;99.90
16229;DHT22;8222;51.462;12.630;2023-08-20T06:05:40;24.10;99.90
16229;DHT22;8222;51.462;12.630;2023-08-20T06:08:05;24.10;99.90
16229;DHT22;8222;51.462;12.630;2023-08-20T06:10:31;24.20;99.90
16229;DHT22;8222;51.462;12.630;2023-08-20T06:12:57;24.30;99.90
16229;DHT22;8222;51.462;12.630;2023-08-20T06:15:25;24.20;99.90
16229;DHT22;8222;51.462;12.630;2023-08-20T06:17:51;24.10;99.90
16229;DHT22;8222;51.462;12.630;2023-08-20T06:20:16;24.10;99.90
16229;DHT22;8222;51.462;12.630;2023-08-20T06:22:44;24.20;99.90
16229;DHT22;8222;51.462;12.630;2023-08-20T06:25:12;24.30;99.90
16229;DHT22;8222;51.462;12.630;2023-08-20T06:27:38;24.50;99.90
16229;DHT22;8222;51.462;12.630;2023-08-20T06:30:06;24.40;99.90
16229;DHT22;8222;51.462;12.630;2023-08-20T06:32:32;24.60;99.90
16229;DHT22;8222;51.462;12.630;2023-08-20T06:34:58;24.60;99.90
16229;DHT22;8222;51.462;12.630;2023-08-20T06:37:26;24.70;99.90
16229;DHT22;8222;51.462;12.630;2023-08-20T06:39:51;24.90;99.90
16229;DHT22;8222;51.462;12.630;2023-08-20T06:42:17;25.00;99.90
16229;DHT22;8222;51.462;12.630;2023-08-20T06:44:43;25.10;99.90
16229;DHT22;8222;51.462;12.630;2023-08-20T06:47:08;25.10;99.90
16229;DHT22;8222;51.462;12.630;2023-08-20T06:49:34;25.20;99.90
16229;DHT22;8222;51.462;12.630;2023-08-20T06:52:02;25.20;99.90
16229;DHT22;8222;51.462;12.630;2023-08-20T06:54:28;25.40;99.90
16229;DHT22;8222;51.462;12.630;2023-08-20T06:56:54;25.60;99.90
16229;DHT22;8222;51.462;12.630;2023-08-20T06:59:19;25.70;99.90
16229;DHT22;8222;51.462;12.630;2023-08-20T07:01:48;25.60;99.90
16229;DHT22;8222;51.462;12.630;2023-08-20T07:04:13;25.50;99.90
16229;DHT22;8222;51.462;12.630;2023-08-20T07:06:39;25.50;99.90
16229;DHT22;8222;51.462;12.630;2023-08-20T07:09:08;25.40;99.90
16229;DHT22;8222;51.462;12.630;2023-08-20T07:11:37;25.40;99.90
16229;DHT22;8222;51.462;12.630;2023-08-20T07:14:02;25.50;99.90
16229;DHT22;8222;51.462;12.630;2023-08-20T07:16:28;25.60;99.90
16229;DHT22;8222;51.462;12.630;2023-08-20T07:18:54;25.50;99.90
16229;DHT22;8222;51.462;12.630;2023-08-20T07:21:20;25.50;99.90
16229;DHT22;8222;51.462;12.630;2023-08-20T07:23:45;25.50;99.90
16229;DHT22;8222;51.462;12.630;2023-08-20T07:26:16;25.60;99.90
16229;DHT22;8222;51.462;12.630;2023-08-20T07:28:41;25.50;99.90
16229;DHT22;8222;51.462;12.630;2023-08-20T07:33:51;25.80;99.90
16229;DHT22;8222;51.462;12.630;2023-08-20T07:36:20;26.10;99.90
16229;DHT22;8222;51.462;12.630;2023-08-20T07:38:51;26.40;99.90
16229;DHT22;8222;51.462;12.630;2023-08-20T07:41:17;26.40;99.90
16229;DHT22;8222;51.462;12.630;2023-08-20T07:43:45;26.40;99.90
16229;DHT22;8222;51.462;12.630;2023-08-20T07:46:14;26.50;99.90
16229;DHT22;8222;51.462;12.630;2023-08-20T07:48:40;26.40;99.90
16229;DHT22;8222;51.462;12.630;2023-08-20T07:51:08;26.50;99.90
16229;DHT22;8222;51.462;12.630;2023-08-20T07:53:34;26.70;99.90
16229;DHT22;8222;51.462;12.630;2023-08-20T07:56:03;26.80;99.90
16229;DHT22;8222;51.462;12.630;2023-08-20T07:58:28;26.90;99.90
16229;DHT22;8222;51.462;12.630;2023-08-20T08:00:55;26.90;99.90
16229;DHT22;8222;51.462;12.630;2023-08-20T08:03:21;27.00;99.90
16229;DHT22;8222;51.462;12.630;2023-08-20T08:05:47;27.30;99.90
16229;DHT22;8222;51.462;12.630;2023-08-20T08:08:15;27.60;99.90
16229;DHT22;8222;51.462;12.630;2023-08-20T08:10:40;27.60;99.90
16229;DHT22;8222;51.462;12.630;2023-08-20T08:13:06;27.50;99.90
16229;DHT22;8222;51.462;12.630;2023-08-20T08:15:32;27.50;99.90
16229;DHT22;8222;51.462;12.630;2023-08-20T08:18:00;27.40;99.90
16229;DHT22;8222;51.462;12.630;2023-08-20T08:20:26;27.60;99.90
16229;DHT22;8222;51.462;12.630;2023-08-20T08:22:54;27.60;99.90
16229;DHT22;8222;51.462;12.630;2023-08-20T08:25:20;27.20;99.90
16229;DHT22;8222;51.462;12.630;2023-08-20T08:27:45;27.40;99.90
16229;DHT22;8222;51.462;12.630;2023-08-20T08:30:16;27.50;99.90
16229;DHT22;8222;51.462;12.630;2023-08-20T08:32:42;28.00;99.90
16229;DHT22;8222;51.462;12.630;2023-08-20T08:35:08;28.10;99.90
16229;DHT22;8222;51.462;12.630;2023-08-20T08:37:33;28.00;99.90
16229;DHT22;8222;51.462;12.630;2023-08-20T08:39:59;28.10;99.90
16229;DHT22;8222;51.462;12.630;2023-08-20T08:42:25;28.20;99.90
16229;DHT22;8222;51.462;12.630;2023-08-20T08:44:54;27.80;99.90
16229;DHT22;8222;51.462;12.630;2023-08-20T08:47:23;27.60;99.90
16229;DHT22;8222;51.462;12.630;2023-08-20T08:49:49;27.30;99.90
16229;DHT22;8222;51.462;12.630;2023-08-20T08:52:15;27.50;99.90
16229;DHT22;8222;51.462;12.630;2023-08-20T08:54:41;27.60;99.90
16229;DHT22;8222;51.462;12.630;2023-08-20T08:57:12;27.50;99.90
16229;DHT22;8222;51.462;12.630;2023-08-20T08:59:38;27.50;99.90
16229;DHT22;8222;51.462;12.630;2023-08-20T09:02:11;27.20;99.90
16229;DHT22;8222;51.462;12.630;2023-08-20T09:04:40;27.10;99.90
16229;DHT22;8222;51.462;12.630;2023-08-20T09:07:11;27.10;99.90
16229;DHT22;8222;51.462;12.630;2023-08-20T09:09:46;27.20;99.90
16229;DHT22;8222;51.462;12.630;2023-08-20T09:12:21;27.40;99.90
16229;DHT22;8222;51.462;12.630;2023-08-20T09:14:51;27.60;99.90
16229;DHT22;8222;51.462;12.630;2023-08-20T09:17:19;27.50;99.90
16229;DHT22;8222;51.462;12.630;2023-08-20T09:19:45;27.40;99.90
16229;DHT22;8222;51.462;12.630;2023-08-20T09:22:14;27.30;99.90
16229;DHT22;8222;51.462;12.630;2023-08-20T09:24:52;27.30;99.90
16229;DHT22;8222;51.462;12.630;2023-08-20T09:27:17;27.50;99.90
16229;DHT22;8222;51.462;12.630;2023-08-20T09:29:51;27.80;99.90
16229;DHT22;8222;51.462;12.630;2023-08-20T09:32:19;27.60;99.90
16229;DHT22;8222;51.462;12.630;2023-08-20T09:34:45;27.60;99.90
16229;DHT22;8222;51.462;12.630;2023-08-20T09:37:12;27.50;99.90
16229;DHT22;8222;51.462;12.630;2023-08-20T09:39:41;27.80;99.90
16229;DHT22;8222;51.462;12.630;2023-08-20T09:42:12;27.90;99.90
16229;DHT22;8222;51.462;12.630;2023-08-20T09:44:40;28.00;99.90
16229;DHT22;8222;51.462;12.630;2023-08-20T09:47:14;28.00;99.90
16229;DHT22;8222;51.462;12.630;2023-08-20T09:49:47;28.00;99.90
16229;DHT22;8222;51.462;12.630;2023-08-20T09:52:25;28.00;99.90
16229;DHT22;8222;51.462;12.630;2023-08-20T09:55:09;27.90;99.90
16229;DHT22;8222;51.462;12.630;2023-08-20T09:57:40;28.00;99.90
16229;DHT22;8222;51.462;12.630;2023-08-20T10:00:10;28.10;99.90
16229;DHT22;8222;51.462;12.630;2023-08-20T10:02:37;28.30;99.90
16229;DHT22;8222;51.462;12.630;2023-08-20T10:05:07;28.50;99.90
16229;DHT22;8222;51.462;12.630;2023-08-20T10:07:34;28.70;99.90
16229;DHT22;8222;51.462;12.630;2023-08-20T10:10:09;28.70;99.90
16229;DHT22;8222;51.462;12.630;2023-08-20T10:12:47;28.80;99.90
16229;DHT22;8222;51.462;12.630;2023-08-20T10:15:32;29.10;99.90
16229;DHT22;8222;51.462;12.630;2023-08-20T10:18:00;29.10;99.90
16229;DHT22;8222;51.462;12.630;2023-08-20T10:20:29;29.30;99.90
16229;DHT22;8222;51.462;12.630;2023-08-20T10:23:00;28.90;99.90
16229;DHT22;8222;51.462;12.630;2023-08-20T10:25:26;28.80;99.90
16229;DHT22;8222;51.462;12.630;2023-08-20T10:28:10;28.80;99.90
16229;DHT22;8222;51.462;12.630;2023-08-20T10:30:38;29.20;99.90
16229;DHT22;8222;51.462;12.630;2023-08-20T10:33:04;29.50;99.90
16229;DHT22;8222;51.462;12.630;2023-08-20T10:40:55;28.90;99.90
16229;DHT22;8222;51.462;12.630;2023-08-20T10:43:34;29.20;99.90
16229;DHT22;8222;51.462;12.630;2023-08-20T10:48:32;29.40;99.90
16229;DHT22;8222;51.462;12.630;2023-08-20T10:51:12;29.60;99.90
16229;DHT22;8222;51.462;12.630;2023-08-20T10:53:40;29.70;99.90
16229;DHT22;8222;51.462;12.630;2023-08-20T10:56:16;29.90;99.90
16229;DHT22;8222;51.462;12.630;2023-08-20T10:58:46;29.90;99.90
16229;DHT22;8222;51.462;12.630;2023-08-20T11:01:20;30.00;99.90
16229;DHT22;8222;51.462;12.630;2023-08-20T11:03:47;29.90;99.90
16229;DHT22;8222;51.462;12.630;2023-08-20T11:06:14;29.70;99.90
16229;DHT22;8222;51.462;12.630;2023-08-20T11:08:41;29.70;99.90
16229;DHT22;8222;51.462;12.630;2023-08-20T11:11:07;29.80;99.90
16229;DHT22;8222;51.462;12.630;2023-08-20T11:13:33;30.30;99.90
16229;DHT22;8222;51.462;12.630;2023-08-20T11:16:03;30.60;99.90
16229;DHT22;8222;51.462;12.630;2023-08-20T11:18:32;30.70;99.90
16229;DHT22;8222;51.462;12.630;2023-08-20T11:21:02;30.70;99.90
16229;DHT22;8222;51.462;12.630;2023-08-20T11:23:28;30.80;99.90
16229;DHT22;8222;51.462;12.630;2023-08-20T11:25:59;30.70;99.90
16229;DHT22;8222;51.462;12.630;2023-08-20T11:28:26;30.50;99.90
16229;DHT22;8222;51.462;12.630;2023-08-20T11:30:55;30.40;99.90
16229;DHT22;8222;51.462;12.630;2023-08-20T11:33:22;30.40;99.90
16229;DHT22;8222;51.462;12.630;2023-08-20T11:35:48;30.40;99.90
16229;DHT22;8222;51.462;12.630;2023-08-20T11:38:17;30.50;99.90
16229;DHT22;8222;51.462;12.630;2023-08-20T11:40:43;30.60;99.90
16229;DHT22;8222;51.462;12.630;2023-08-20T11:43:11;30.60;99.90
16229;DHT22;8222;51.462;12.630;2023-08-20T11:45:49;30.60;99.90
16229;DHT22;8222;51.462;12.630;2023-08-20T11:48:19;30.50;99.90
16229;DHT22;8222;51.462;12.630;2023-08-20T11:50:45;30.40;99.90
16229;DHT22;8222;51.462;12.630;2023-08-20T11:53:11;30.50;99.90
16229;DHT22;8222;51.462;12.630;2023-08-20T11:55:40;30.40;99.90
16229;DHT22;8222;51.462;12.630;2023-08-20T11:58:18;30.30;99.90
16229;DHT22;8222;51.462;12.630;2023-08-20T12:00:49;30.30;99.90
16229;DHT22;8222;51.462;12.630;2023-08-20T12:03:18;30.30;99.90
16229;DHT22;8222;51.462;12.630;2023-08-20T12:05:46;30.60;99.90
16229;DHT22;8222;51.462;12.630;2023-08-20T12:08:17;30.50;99.90
16229;DHT22;8222;51.462;12.630;2023-08-20T12:10:43;30.60;99.90
16229;DHT22;8222;51.462;12.630;2023-08-20T12:13:09;30.60;99.90
16229;DHT22;8222;51.462;12.630;2023-08-20T12:15:35;30.80;99.90
16229;DHT22;8222;51.462;12.630;2023-08-20T12:18:02;30.60;99.90
16229;DHT22;8222;51.462;12.630;2023-08-20T12:20:35;30.40;99.90
16229;DHT22;8222;51.462;12.630;2023-08-20T12:23:03;30.60;99.90
16229;DHT22;8222;51.462;12.630;2023-08-20T12:25:34;30.80;99.90
16229;DHT22;8222;51.462;12.630;2023-08-20T12:28:03;30.90;99.90
16229;DHT22;8222;51.462;12.630;2023-08-20T12:30:33;30.80;99.90
16229;DHT22;8222;51.462;12.630;2023-08-20T12:33:03;30.40;99.90
16229;DHT22;8222;51.462;12.630;2023-08-20T12:35:29;30.50;99.90
16229;DHT22;8222;51.462;12.630;2023-08-20T12:37:57;30.60;99.90
16229;DHT22;8222;51.462;12.630;2023-08-20T12:40:23;30.60;99.90
16229;DHT22;8222;51.462;12.630;2023-08-20T12:42:48;30.60;99.90
16229;DHT22;8222;51.462;12.630;2023-08-20T12:45:18;30.70;99.90
16229;DHT22;8222;51.462;12.630;2023-08-20T12:47:44;30.80;99.90
16229;DHT22;8222;51.462;12.630;2023-08-20T12:50:10;30.80;99.90
16229;DHT22;8222;51.462;12.630;2023-08-20T12:52:36;30.90;99.90
16229;DHT22;8222;51.462;12.630;2023-08-20T12:55:02;31.00;99.90
16229;DHT22;8222;51.462;12.630;2023-08-20T12:57:28;31.00;99.90
16229;DHT22;8222;51.462;12.630;2023-08-20T12:59:54;30.90;99.90
16229;DHT22;8222;51.462;12.630;2023-08-20T13:02:24;30.90;99.90
16229;DHT22;8222;51.462;12.630;2023-08-20T13:04:50;31.00;99.90
16229;DHT22;8222;51.462;12.630;2023-08-20T13:07:19;31.00;99.90
16229;DHT22;8222;51.462;12.630;2023-08-20T13:09:45;30.90;99.90
16229;DHT22;8222;51.462;12.630;2023-08-20T13:12:11;30.80;99.90
16229;DHT22;8222;51.462;12.630;2023-08-20T13:14:41;30.80;99.90
16229;DHT22;8222;51.462;12.630;2023-08-20T13:17:09;31.00;99.90
16229;DHT22;8222;51.462;12.630;2023-08-20T13:19:35;31.10;99.90
16229;DHT22;8222;51.462;12.630;2023-08-20T13:22:05;31.00;99.90
16229;DHT22;8222;51.462;12.630;2023-08-20T13:24:33;31.10;99.90
16229;DHT22;8222;51.462;12.630;2023-08-20T13:27:01;31.30;99.90
16229;DHT22;8222;51.462;12.630;2023-08-20T13:29:29;31.30;99.90
16229;DHT22;8222;51.462;12.630;2023-08-20T13:31:54;31.20;99.90
16229;DHT22;8222;51.462;12.630;2023-08-20T13:34:25;31.00;99.90
16229;DHT22;8222;51.462;12.630;2023-08-20T13:36:53;31.10;99.90
16229;DHT22;8222;51.462;12.630;2023-08-20T13:39:18;31.40;99.90
16229;DHT22;8222;51.462;12.630;2023-08-20T13:41:51;31.20;99.90
16229;DHT22;8222;51.462;12.630;2023-08-20T13:44:22;31.00;99.90
16229;DHT22;8222;51.462;12.630;2023-08-20T13:46:48;31.10;99.90
16229;DHT22;8222;51.462;12.630;2023-08-20T13:49:14;31.10;99.90
16229;DHT22;8222;51.462;12.630;2023-08-20T13:51:39;31.00;99.90
16229;DHT22;8222;51.462;12.630;2023-08-20T13:54:05;30.90;99.90
16229;DHT22;8222;51.462;12.630;2023-08-20T13:56:31;31.20;99.90
16229;DHT22;8222;51.462;12.630;2023-08-20T13:58:57;31.30;99.90
16229;DHT22;8222;51.462;12.630;2023-08-20T14:01:22;31.30;99.90
16229;DHT22;8222;51.462;12.630;2023-08-20T14:03:50;31.20;99.90
16229;DHT22;8222;51.462;12.630;2023-08-20T14:06:16;30.80;99.90
16229;DHT22;8222;51.462;12.630;2023-08-20T14:08:45;30.60;99.90
16229;DHT22;8222;51.462;12.630;2023-08-20T14:11:13;30.60;99.90
16229;DHT22;8222;51.462;12.630;2023-08-20T14:13:38;30.90;99.90
16229;DHT22;8222;51.462;12.630;2023-08-20T14:16:07;31.20;99.90
16229;DHT22;8222;51.462;12.630;2023-08-20T14:18:32;31.10;99.90
16229;DHT22;8222;51.462;12.630;2023-08-20T14:21:00;31.00;99.90
16229;DHT22;8222;51.462;12.630;2023-08-20T14:23:26;31.10;99.90
16229;DHT22;8222;51.462;12.630;2023-08-20T14:25:51;31.10;99.90
16229;DHT22;8222;51.462;12.630;2023-08-20T14:28:19;30.90;99.90
16229;DHT22;8222;51.462;12.630;2023-08-20T14:30:50;30.70;99.90
16229;DHT22;8222;51.462;12.630;2023-08-20T14:33:21;30.60;99.90
16229;DHT22;8222;51.462;12.630;2023-08-20T14:35:47;30.80;99.90
16229;DHT22;8222;51.462;12.630;2023-08-20T14:38:12;30.90;99.90
16229;DHT22;8222;51.462;12.630;2023-08-20T14:40:42;30.90;99.90
16229;DHT22;8222;51.462;12.630;2023-08-20T14:43:11;30.90;99.90
16229;DHT22;8222;51.462;12.630;2023-08-20T14:45:39;31.00;99.90
16229;DHT22;8222;51.462;12.630;2023-08-20T14:48:05;31.10;99.90
16229;DHT22;8222;51.462;12.630;2023-08-20T14:50:31;31.00;99.90
16229;DHT22;8222;51.462;12.630;2023-08-20T14:53:00;30.90;99.90
16229;DHT22;8222;51.462;12.630;2023-08-20T14:55:28;30.90;99.90
16229;DHT22;8222;51.462;12.630;2023-08-20T14:57:54;31.20;99.90
16229;DHT22;8222;51.462;12.630;2023-08-20T15:00:20;31.10;99.90
16229;DHT22;8222;51.462;12.630;2023-08-20T15:02:51;31.10;99.90
16229;DHT22;8222;51.462;12.630;2023-08-20T15:05:17;31.10;99.90
16229;DHT22;8222;51.462;12.630;2023-08-20T15:07:43;31.30;99.90
16229;DHT22;8222;51.462;12.630;2023-08-20T15:10:11;31.30;99.90
16229;DHT22;8222;51.462;12.630;2023-08-20T15:12:39;31.40;99.90
16229;DHT22;8222;51.462;12.630;2023-08-20T15:15:06;31.60;99.90
16229;DHT22;8222;51.462;12.630;2023-08-20T15:17:34;31.70;99.90
16229;DHT22;8222;51.462;12.630;2023-08-20T15:20:01;31.50;99.90
16229;DHT22;8222;51.462;12.630;2023-08-20T15:22:30;31.40;99.90
16229;DHT22;8222;51.462;12.630;2023-08-20T15:24:58;31.60;99.90
16229;DHT22;8222;51.462;12.630;2023-08-20T15:27:26;31.80;99.90
16229;DHT22;8222;51.462;12.630;2023-08-20T15:29:54;31.90;99.90
16229;DHT22;8222;51.462;12.630;2023-08-20T15:32:23;31.70;99.90
16229;DHT22;8222;51.462;12.630;2023-08-20T15:34:51;31.60;99.90
16229;DHT22;8222;51.462;12.630;2023-08-20T15:37:16;31.90;99.90
16229;DHT22;8222;51.462;12.630;2023-08-20T15:39:44;32.00;99.90
16229;DHT22;8222;51.462;12.630;2023-08-20T15:42:10;32.00;99.90
16229;DHT22;8222;51.462;12.630;2023-08-20T15:44:35;32.10;99.90
16229;DHT22;8222;51.462;12.630;2023-08-20T15:47:01;32.00;99.90
16229;DHT22;8222;51.462;12.630;2023-08-20T15:49:29;32.20;99.90